Página principal
METAR-TAF:

METAR-TAF

Aeroportos :

Aeroporto Internacional Yoff-Léopold Sédar Senghor

Dakar, Senegal

latitude: 14-44N, longitude: 017-30W, altura: 27 m

Observação actual do tempo

O boletim foi feito há 34 minutos, às 15:00 UTC
Vento 8 kt de oeste
Temperatura 30°C
Humidade 70%
Pressão 1014 hPa
Visibilidade 10 km ou mais
Poucas nuvensa uma altura de 1300 ft

METAR: GOOY 161500Z 28008KT 9999 FEW013 30/24 Q1014

Hora: 15:34 (15:34 UTC)

Previsão

O boletim foi feito há 4 horas e 4 minutos, às 11:30 UTC
Previsão válida de 16 às 12 UTC a 17 às 18 UTC
Vento 8 kt de noroeste
Visibilidade 10 km ou mais
Nuvens dispersasa uma altura de 1300 ft

TAF: GOOY 161130Z 1612/1718 32008KT 9999 SCT013

Observações e previsões do tempo de mais de 4000 aeroportos (mensagens METAR e TAF).

As estações disponíveis são os pontos amarelos e vermelhos sobre o mapa.

Mova o rato sobre o mapa para ver o nome da estação.

Depois clique no ponto para visualizar as observações e previsões meteorológicas.

Para alterar o mapa : clique nos botões verdes com uma cruz preta para aumentar o zoom; no botão verde com uma pitada de zoom; ou nas setas verdes para mapas adjacentes.


METAR-TAF: